Main page
METAR-TAF:

METAR-TAF

Airports :

Williamson County Regional Airport

Marion, Illinois, United States

latitude: 37-45-01N, longitude: 089-00-04W, elevation: 472 ft

Current weather observation

The report was made 25 minutes ago, at 11:35 UTC
Wind 6 mph from the South
Temperature 41°F
Humidity 65%
Pressure 30.15 in. Hg
Visibility: 10 miles
Overcast at a height of 6500 ft

METAR: KMWA 231135Z AUTO 17005KT 10SM OVC065 05/M01 A3015 RMK AO2 T00501013

Time: 06:00 (12:00 UTC)


TAF: missing

Weather observations and forecasts of more than 4000 airports (METAR and TAF reports).

The available stations are represented by yellow and red dots on the map.

Hover mouse over dot to see the name of the station.

Then click to see weather observations and forecasts.

To change the map : click on the green buttons with a black cross to zoom in, on the green button with a dash to zoom out, or on the green arrows for adjacent maps.


METAR-TAF: